Meteo Giornale » Osservazioni meteo Stati Uniti (USA) » Dansville
ore: 20:54 - Osservazioni Meteo Dansville
Lat. 42° 34' N Lon. 77° 42' W Alt. 201 metri s.l.m.
22 °C
Coperto
Temp. 24 Ore
18 °C
22 °C
Nord
5.5 Km/h
Dew point 21 °C
Umidità 94 %
Visibilità 13 Km
Il sole sorge alle ore 06:34
Il sole tramonta alle ore 19:47
| Data e Ora | Cielo e Fenomeni | T °C | DP °C | Um. % | Pres. hPa | Vis. km | Vento km/h | |
|---|---|---|---|---|---|---|---|---|
| Oggi h: 20:54 | Coperto | 22 | 21 | 94 | 1017 | 13 | N 5.5 | |
| Oggi h: 19:54 | Coperto | 22 | 22 | 100 | 1017 | 14 | N 5.5 | |
| Oggi h: 18:54 | Coperto | 22 | 22 | 100 | 1017 | 14 | N 0 | |
| Oggi h: 17:54 | Coperto | 22 | 22 | 100 | 1017 | 14 | SE 7.4 | |
| Oggi h: 16:54 | Pioggia | 22 | 21 | 94 | 1017 | 13 | S/SE 7.4 | |
| Oggi h: 15:54 | Coperto | 22 | 21 | 94 | 1017 | 10 | E/SE 9.3 | |
| Oggi h: 15:49 | Coperto | 22 | 21 | 94 | 1017 | 10 | E/SE 9.3 | |
| Oggi h: 14:54 | Coperto | 22 | 20 | 88 | 1018 | 10 | SE 11.1 | |
| Oggi h: 13:54 | Pioggia | 21 | 19 | 88 | 1018 | 11 | SE 7.4 | |
| Oggi h: 12:54 | Pioggia | 21 | 19 | 88 | 1019 | 14 | SE 9.3 | |
| Oggi h: 12:46 | Pioggia | 21 | 19 | 88 | 1019 | 14 | SE 9.3 | |
| Oggi h: 12:14 | Pioggia Foschia | 19 | 19 | 100 | 1019 | 5 | N 5.5 | |
| Oggi h: 11:54 | Pioggia Foschia | 19 | 19 | 100 | 1020 | 5 | N 0 | |
| Oggi h: 11:44 | Pioggia Foschia | 19 | 19 | 100 | 1020 | 5 | N 0 | |
| Oggi h: 11:38 | Pioggia Foschia | 19 | 19 | 100 | 1020 | 6 | N 0 | |
| Oggi h: 10:54 | Pioggia Foschia | 19 | 19 | 100 | 1020 | 3 | N 5.5 | |
| Oggi h: 10:39 | Pioggia Foschia | 19 | 19 | 100 | 1019 | 2 | S/SE 9.3 | |
| Oggi h: 10:05 | Pioggia Foschia | 20 | 18 | 88 | 1019 | 5 | N 0 | |
| Oggi h: 09:54 | Coperto | 20 | 18 | 88 | 1019 | 10 | N 0 | |
| Oggi h: 08:54 | Molto Nuvoloso | 20 | 19 | 93 | 1019 | 10 | E/SE 9.3 | |
| Oggi h: 07:54 | Coperto | 19 | 19 | 100 | 1020 | 10 | S/SE 7.4 | |
| Oggi h: 06:54 | Coperto | 19 | 18 | 93 | 1020 | 10 | SE 11.1 | |
| Oggi h: 06:12 | Coperto | 19 | 18 | 93 | 1019 | 10 | N 5.5 | |
| Oggi h: 05:54 | Coperto | 19 | 18 | 93 | 1019 | 14 | N 5.5 | |
| Oggi h: 05:29 | Pioggia | 19 | 18 | 93 | 1020 | 13 | N 5.5 | |
| Oggi h: 05:20 | Pioggia | 19 | 18 | 93 | 1020 | 13 | N 0 | |
| Oggi h: 04:54 | Pioggia Foschia | 18 | 18 | 100 | 1019 | 6 | N 5.5 | |
| Oggi h: 04:46 | Pioggia Foschia | 18 | 18 | 100 | 1020 | 6 | E/SE 7.4 | |
| Oggi h: 04:14 | Pioggia Foschia | 19 | 18 | 93 | 1020 | 2 | N 5.5 | |
| Oggi h: 03:54 | Foschia | 18 | 18 | 100 | 1020 | 5 | N 5.5 | |
| Oggi h: 03:25 | Foschia | 19 | 18 | 93 | 1020 | 5 | N 5.5 | |
| Oggi h: 03:13 | Foschia | 19 | 18 | 93 | 1020 | 8 | N 5.5 | |
| Oggi h: 02:54 | Foschia | 19 | 18 | 93 | 1020 | 10 | N 0 | |
| Oggi h: 01:54 | Coperto | 19 | 18 | 93 | 1020 | 10 | N 5.5 | |
| Oggi h: 00:54 | Coperto | 19 | 18 | 93 | 1020 | 10 | N 5.5 | |
| Ieri h: 23:54 | Coperto | 19 | 18 | 93 | 1020 | 10 | S/SE 7.4 | |
| Ieri h: 23:17 | Coperto | 19 | 18 | 93 | 1020 | 10 | N 0 | |
| Ieri h: 22:54 | Coperto | 19 | 18 | 93 | 1020 | 10 | N 0 | |
| Ieri h: 21:54 | Coperto | 19 | 18 | 93 | 1021 | 10 | N 5.5 | |



